Main page
METAR-TAF:

METAR-TAF

Airports :

Jersey Airport

Jersey,

latitude: 49-13N, longitude: 002-12W, elevation: 84 m

Current weather observation

The report was made 18 minutes ago, at 16:20 UTC
Wind 12 kt from the West, varying between West/Southwest and Northwest
Temperature 16°C
Humidity 77%
Pressure 1022 hPa
Visibility 10 km or more
Few clouds at a height of 1600 ft

METAR: EGJJ 071620Z 28012KT 250V310 9999 FEW016 16/12 Q1022

Time: 17:38 (16:38 UTC)

Forecast

The report was made 2 hours and 43 minutes ago, at 13:55 UTC
Forecast valid from 07 at 15 UTC to 08 at 00 UTC
Wind 10 kt from the West
Visibility 10 km or more
Few clouds at a height of 1700 ft

TAF: EGJJ 071355Z 0715/0800 26010KT 9999 FEW017

Weather observations and forecasts of more than 4000 airports (METAR and TAF reports).

The available stations are represented by yellow and red dots on the map.

Hover mouse over dot to see the name of the station.

Then click to see weather observations and forecasts.

To change the map : click on the green buttons with a black cross to zoom in, on the green button with a dash to zoom out, or on the green arrows for adjacent maps.


METAR-TAF: